createdAt,value
2023-08-08T00:00:02.232Z,0.00
2023-08-08T00:00:32.768Z,0.00
2023-08-08T00:01:33.908Z,0.00
2023-08-08T00:02:04.530Z,0.00
2023-08-08T00:02:35.273Z,0.00
2023-08-08T00:03:06.402Z,0.00
2023-08-08T00:03:37.720Z,0.00
2023-08-08T00:04:08.921Z,0.00
2023-08-08T00:04:48.212Z,0.00
2023-08-08T00:05:10.494Z,0.00
2023-08-08T00:05:41.661Z,0.00
2023-08-08T00:06:13.704Z,0.00
2023-08-08T00:06:43.264Z,0.00
2023-08-08T00:07:14.363Z,0.00
2023-08-08T00:07:45.643Z,0.00
2023-08-08T00:11:48.737Z,0.00
2023-08-08T00:11:55.309Z,0.00
2023-08-08T00:12:24.006Z,0.00
2023-08-08T00:13:08.238Z,0.00
2023-08-08T00:13:29.364Z,0.00
2023-08-08T00:13:58.978Z,0.00
2023-08-08T00:14:30.057Z,0.00
2023-08-08T00:16:01.536Z,0.00
2023-08-08T00:16:33.531Z,0.00
2023-08-08T00:17:03.630Z,0.00
2023-08-08T00:17:36.691Z,0.00
2023-08-08T00:18:06.335Z,0.00
2023-08-08T00:18:39.274Z,0.00
2023-08-08T00:19:08.523Z,0.00
2023-08-08T00:19:39.592Z,0.00
2023-08-08T00:20:10.862Z,0.00
2023-08-08T00:20:41.963Z,0.00
2023-08-08T00:21:12.197Z,0.00
2023-08-08T00:21:42.476Z,0.00
2023-08-08T00:22:13.668Z,0.00
2023-08-08T00:22:45.379Z,0.00
2023-08-08T00:23:15.766Z,0.00
2023-08-08T00:23:47.963Z,0.00
2023-08-08T00:24:18.537Z,0.00
2023-08-08T00:24:49.910Z,0.00
2023-08-08T00:25:22.266Z,0.00
2023-08-08T00:25:51.924Z,0.00
2023-08-08T00:26:23.083Z,0.00
2023-08-08T00:26:53.441Z,0.00
2023-08-08T00:27:24.663Z,0.00
2023-08-08T00:27:55.925Z,0.00
2023-08-08T00:28:26.438Z,0.00
2023-08-08T00:28:58.237Z,0.00
2023-08-08T00:29:29.060Z,0.00
2023-08-08T00:29:59.220Z,0.00
2023-08-08T00:30:32.942Z,0.00
2023-08-08T00:31:01.818Z,0.00
2023-08-08T00:31:32.913Z,0.00
2023-08-08T00:32:03.987Z,0.00
2023-08-08T00:32:34.454Z,0.00
2023-08-08T00:33:05.700Z,0.00
2023-08-08T00:33:37.124Z,0.00
2023-08-08T00:34:07.421Z,0.00
2023-08-08T00:34:38.772Z,0.00
2023-08-08T00:35:10.440Z,0.00
2023-08-08T00:36:10.664Z,0.00
2023-08-08T00:37:13.202Z,0.00
2023-08-08T00:37:43.958Z,0.00
2023-08-08T00:38:16.902Z,0.00
2023-08-08T00:38:46.147Z,0.00
2023-08-08T00:39:17.019Z,0.00
2023-08-08T00:39:48.200Z,0.00
2023-08-08T00:40:20.017Z,0.00
2023-08-08T00:40:51.718Z,0.00
2023-08-08T00:41:21.249Z,0.00
2023-08-08T00:41:53.376Z,0.00
2023-08-08T00:42:22.924Z,0.00
2023-08-08T00:42:53.889Z,0.00
2023-08-08T00:43:27.338Z,0.00
2023-08-08T00:43:55.506Z,0.00
2023-08-08T00:44:59.258Z,0.00
2023-08-08T00:45:32.537Z,0.00
2023-08-08T00:45:59.722Z,0.00
2023-08-08T00:46:31.427Z,0.00
2023-08-08T00:47:03.723Z,0.00
2023-08-08T00:47:35.899Z,0.00
2023-08-08T00:48:05.932Z,0.00
2023-08-08T00:48:36.968Z,0.00
2023-08-08T00:49:05.576Z,0.00
2023-08-08T00:49:37.588Z,0.00
2023-08-08T00:50:08.942Z,0.00
2023-08-08T00:50:39.268Z,0.00
2023-08-08T00:51:09.602Z,0.00
2023-08-08T00:51:41.048Z,0.00
2023-08-08T00:52:13.678Z,0.00
2023-08-08T00:52:42.775Z,0.00
2023-08-08T00:53:45.448Z,0.00
2023-08-08T00:54:16.040Z,0.00
2023-08-08T00:54:47.235Z,0.00
2023-08-08T00:55:17.905Z,0.00
2023-08-08T00:55:49.415Z,0.00
2023-08-08T00:56:20.789Z,0.00
2023-08-08T00:56:51.613Z,0.00
2023-08-08T00:57:23.351Z,0.00
2023-08-08T00:57:53.698Z,0.00
2023-08-08T00:58:24.369Z,0.00
2023-08-08T00:58:55.156Z,0.00
2023-08-08T00:59:27.676Z,0.00
2023-08-08T00:59:57.956Z,0.00
2023-08-08T01:00:29.936Z,0.00
2023-08-08T01:01:00.162Z,0.00
2023-08-08T01:01:32.221Z,0.00
2023-08-08T01:02:02.566Z,0.00
2023-08-08T01:02:32.152Z,0.00
2023-08-08T01:03:04.078Z,0.00
2023-08-08T01:03:34.356Z,0.00
2023-08-08T01:04:05.029Z,0.00
2023-08-08T01:04:36.459Z,0.00
2023-08-08T01:05:08.341Z,0.00
2023-08-08T01:05:38.783Z,0.00
2023-08-08T01:06:10.102Z,0.00
2023-08-08T01:07:02.202Z,0.00
2023-08-08T01:07:11.250Z,0.00
2023-08-08T01:07:42.636Z,0.00
2023-08-08T01:08:13.059Z,0.00
2023-08-08T01:08:44.347Z,0.00
2023-08-08T01:09:54.680Z,0.00
2023-08-08T01:10:18.322Z,0.00
2023-08-08T01:10:49.333Z,0.00
2023-08-08T01:11:19.321Z,0.00
2023-08-08T01:11:49.784Z,0.00
2023-08-08T01:12:21.237Z,0.00
2023-08-08T01:12:52.778Z,0.00
2023-08-08T01:13:23.584Z,0.00
2023-08-08T01:13:54.275Z,0.00
2023-08-08T01:14:25.286Z,0.00
2023-08-08T01:14:55.731Z,0.00
2023-08-08T01:15:28.498Z,0.00
2023-08-08T01:15:58.495Z,0.00
2023-08-08T01:16:28.946Z,0.00
2023-08-08T01:16:59.750Z,0.00
2023-08-08T01:18:02.118Z,0.00
2023-08-08T01:18:34.464Z,0.00
2023-08-08T01:19:04.143Z,0.00
2023-08-08T01:19:36.150Z,0.00
2023-08-08T01:20:07.301Z,0.00
2023-08-08T01:20:37.952Z,0.00
2023-08-08T01:21:08.263Z,0.00
2023-08-08T01:21:40.810Z,0.00
2023-08-08T01:22:10.454Z,0.00
2023-08-08T01:22:41.171Z,0.00
2023-08-08T01:23:11.942Z,0.00
2023-08-08T01:23:44.175Z,0.00
2023-08-08T01:24:14.282Z,0.00
2023-08-08T01:24:45.705Z,0.00
2023-08-08T01:25:18.121Z,0.00
2023-08-08T01:25:47.906Z,0.00
2023-08-08T01:26:18.874Z,0.00
2023-08-08T01:26:49.008Z,0.00
2023-08-08T01:27:20.151Z,0.00
2023-08-08T01:27:52.283Z,0.00
2023-08-08T01:28:22.180Z,0.00
2023-08-08T01:28:53.612Z,0.00
2023-08-08T01:29:24.526Z,0.00
2023-08-08T01:29:54.729Z,0.00
2023-08-08T01:30:27.700Z,0.00
2023-08-08T01:30:57.900Z,0.00
2023-08-08T01:31:29.745Z,0.00
2023-08-08T01:31:59.710Z,0.00
2023-08-08T01:32:30.340Z,0.00
2023-08-08T01:33:01.923Z,0.00
2023-08-08T01:33:31.959Z,0.00
2023-08-08T01:34:03.072Z,0.00
2023-08-08T01:34:34.916Z,0.00
2023-08-08T01:35:05.422Z,0.00
2023-08-08T01:36:07.989Z,0.00
2023-08-08T01:36:39.395Z,0.00
2023-08-08T01:37:09.517Z,0.00
2023-08-08T01:37:40.484Z,0.00
2023-08-08T01:38:10.898Z,0.00
2023-08-08T01:38:41.853Z,0.00
2023-08-08T01:39:12.741Z,0.00
2023-08-08T01:39:44.273Z,0.00
2023-08-08T01:40:15.881Z,0.00
2023-08-08T01:40:45.881Z,0.00
2023-08-08T01:41:48.564Z,0.00
2023-08-08T01:42:49.795Z,0.00
2023-08-08T01:43:21.139Z,0.00
2023-08-08T01:43:52.342Z,0.00
2023-08-08T01:44:22.601Z,0.00
2023-08-08T01:44:54.191Z,0.00
2023-08-08T01:45:25.521Z,0.00
2023-08-08T01:46:14.068Z,0.00
2023-08-08T01:46:27.708Z,0.00
2023-08-08T01:46:58.733Z,0.00
2023-08-08T01:47:28.937Z,0.00
2023-08-08T01:48:00.044Z,0.00
2023-08-08T01:48:31.107Z,0.00
2023-08-08T01:49:01.988Z,0.00
2023-08-08T01:49:32.842Z,0.00
2023-08-08T01:50:05.025Z,0.00
2023-08-08T01:50:34.724Z,0.00
2023-08-08T01:51:05.706Z,0.00
2023-08-08T01:51:37.051Z,0.00
2023-08-08T01:52:25.740Z,0.00
2023-08-08T01:52:39.322Z,0.00
2023-08-08T01:53:09.867Z,0.00
2023-08-08T01:53:40.974Z,0.00
2023-08-08T01:54:11.628Z,0.00
2023-08-08T01:54:59.929Z,0.00
2023-08-08T01:55:13.791Z,0.00
2023-08-08T01:55:44.833Z,0.00
2023-08-08T01:56:15.794Z,0.00
2023-08-08T01:56:47.003Z,0.00
2023-08-08T01:57:18.834Z,0.00
2023-08-08T01:57:49.631Z,0.00
2023-08-08T01:58:51.284Z,0.00
2023-08-08T01:59:22.714Z,0.00
2023-08-08T01:59:52.916Z,0.00
2023-08-08T02:00:24.994Z,0.00
2023-08-08T02:00:55.125Z,0.00
2023-08-08T02:01:26.038Z,0.00
2023-08-08T02:01:57.885Z,0.00
2023-08-08T02:02:28.502Z,0.00
2023-08-08T02:02:59.430Z,0.00
2023-08-08T02:03:30.175Z,0.00
2023-08-08T02:04:01.137Z,0.00
2023-08-08T02:04:32.062Z,0.00
2023-08-08T02:05:04.181Z,0.00
2023-08-08T02:05:33.976Z,0.00
2023-08-08T02:06:05.253Z,0.00
2023-08-08T02:06:36.097Z,0.00
2023-08-08T02:07:07.609Z,0.00
2023-08-08T02:07:38.744Z,0.00
2023-08-08T02:08:09.668Z,0.00
2023-08-08T02:08:40.530Z,0.00
2023-08-08T02:09:11.759Z,0.00
2023-08-08T02:09:41.620Z,0.00
2023-08-08T02:10:14.198Z,0.00
2023-08-08T02:10:44.014Z,0.00
2023-08-08T02:11:17.994Z,0.00
2023-08-08T02:11:47.124Z,0.00
2023-08-08T02:12:17.834Z,0.00
2023-08-08T02:12:48.926Z,0.00
2023-08-08T02:13:20.011Z,0.00
2023-08-08T02:13:50.164Z,0.00
2023-08-08T02:14:21.283Z,0.00
2023-08-08T02:14:52.912Z,0.00
2023-08-08T02:15:23.438Z,0.00
2023-08-08T02:15:54.586Z,0.00
2023-08-08T02:16:25.886Z,0.00
2023-08-08T02:16:55.926Z,0.00
2023-08-08T02:17:27.343Z,0.00
2023-08-08T02:17:58.923Z,0.00
2023-08-08T02:18:29.483Z,0.00
2023-08-08T02:19:00.013Z,0.00
2023-08-08T02:19:31.594Z,0.00
2023-08-08T02:20:02.608Z,0.00
2023-08-08T02:20:33.627Z,0.00
2023-08-08T02:21:04.424Z,0.00
2023-08-08T02:21:36.275Z,0.00
2023-08-08T02:22:06.394Z,0.00
2023-08-08T02:22:37.335Z,0.00
2023-08-08T02:23:08.751Z,0.00
2023-08-08T02:23:40.289Z,0.00
2023-08-08T02:24:10.653Z,0.00
2023-08-08T02:24:41.386Z,0.00
2023-08-08T02:25:13.005Z,0.00
2023-08-08T02:25:43.358Z,0.00
2023-08-08T02:26:14.782Z,0.00
2023-08-08T02:26:45.140Z,0.00
2023-08-08T02:27:15.924Z,0.00
2023-08-08T02:27:47.459Z,0.00
2023-08-08T02:28:18.049Z,0.00
2023-08-08T02:28:49.437Z,0.00
2023-08-08T02:29:19.803Z,0.00
2023-08-08T02:29:51.251Z,0.00
2023-08-08T02:30:23.707Z,0.00
2023-08-08T02:30:54.195Z,0.00
2023-08-08T02:31:24.337Z,0.00
2023-08-08T02:31:56.426Z,0.00
2023-08-08T02:32:26.817Z,0.00
2023-08-08T02:32:57.891Z,0.00
2023-08-08T02:33:29.085Z,0.00
2023-08-08T02:33:59.379Z,0.00
2023-08-08T02:34:30.470Z,0.00
2023-08-08T02:35:01.807Z,0.00
2023-08-08T02:35:38.166Z,0.00
2023-08-08T02:36:03.715Z,0.00
2023-08-08T02:36:34.188Z,0.00
2023-08-08T02:37:05.097Z,0.00
2023-08-08T02:37:35.850Z,0.00
2023-08-08T02:38:08.038Z,0.00
2023-08-08T02:38:38.946Z,0.00
2023-08-08T02:39:10.053Z,0.00
2023-08-08T02:39:40.194Z,0.00
2023-08-08T02:40:12.154Z,0.00
2023-08-08T02:40:42.055Z,0.00
2023-08-08T02:41:13.688Z,0.00
2023-08-08T02:41:43.986Z,0.00
2023-08-08T02:42:15.825Z,0.00
2023-08-08T02:42:45.900Z,0.00
2023-08-08T02:43:23.529Z,0.00
2023-08-08T02:43:48.797Z,0.00
2023-08-08T02:44:19.789Z,0.00
2023-08-08T02:44:50.367Z,0.00
2023-08-08T02:45:21.832Z,0.00
2023-08-08T02:45:52.380Z,0.00
2023-08-08T02:46:23.189Z,0.00
2023-08-08T02:46:54.091Z,0.00
2023-08-08T02:47:25.287Z,0.00
2023-08-08T02:47:56.076Z,0.00
2023-08-08T02:48:27.785Z,0.00
2023-08-08T02:48:58.451Z,0.00
2023-08-08T02:49:29.184Z,0.00
2023-08-08T02:50:00.011Z,0.00
2023-08-08T02:50:31.342Z,0.00
2023-08-08T02:51:03.685Z,0.00
2023-08-08T02:51:32.925Z,0.00
2023-08-08T02:52:21.825Z,0.00
2023-08-08T02:52:35.654Z,0.00
2023-08-08T02:53:06.260Z,0.00
2023-08-08T02:53:37.299Z,0.00
2023-08-08T02:54:08.550Z,0.00
2023-08-08T02:54:39.601Z,0.00
2023-08-08T02:55:10.688Z,0.00
2023-08-08T02:55:41.191Z,0.00
2023-08-08T02:56:12.656Z,0.00
2023-08-08T02:56:43.163Z,0.00
2023-08-08T02:57:14.559Z,0.00
2023-08-08T02:57:44.994Z,0.00
2023-08-08T02:58:15.860Z,0.00
2023-08-08T02:58:47.472Z,0.00
2023-08-08T02:59:18.873Z,0.00
2023-08-08T02:59:49.289Z,0.00
2023-08-08T03:00:51.802Z,0.00
2023-08-08T03:01:22.309Z,0.00
2023-08-08T03:01:52.904Z,0.00
2023-08-08T03:02:25.111Z,0.00
2023-08-08T03:03:12.458Z,0.00
2023-08-08T03:03:27.357Z,0.00
2023-08-08T03:03:58.370Z,0.00
2023-08-08T03:04:28.601Z,0.00
2023-08-08T03:04:59.812Z,0.00
2023-08-08T03:05:30.598Z,0.00
2023-08-08T03:06:01.264Z,0.00
2023-08-08T03:06:32.513Z,0.00
2023-08-08T03:07:03.404Z,0.00
2023-08-08T03:07:35.062Z,0.00
2023-08-08T03:08:22.192Z,0.00
2023-08-08T03:08:36.706Z,0.00
2023-08-08T03:09:07.721Z,0.00
2023-08-08T03:09:38.607Z,0.00
2023-08-08T03:10:10.175Z,0.00
2023-08-08T03:10:40.396Z,0.00
2023-08-08T03:11:11.261Z,0.00
2023-08-08T03:11:42.628Z,0.00
2023-08-08T03:12:13.395Z,0.00
2023-08-08T03:12:44.813Z,0.00
2023-08-08T03:13:15.057Z,0.00
2023-08-08T03:13:45.933Z,0.00
2023-08-08T03:14:17.359Z,0.00
2023-08-08T03:14:48.802Z,0.00
2023-08-08T03:15:20.363Z,0.00
2023-08-08T03:15:50.544Z,0.00
2023-08-08T03:16:21.843Z,0.00
2023-08-08T03:16:52.450Z,0.00
2023-08-08T03:17:23.245Z,0.00
2023-08-08T03:17:54.284Z,0.00
2023-08-08T03:18:25.732Z,0.00
2023-08-08T03:18:56.507Z,0.00
2023-08-08T03:19:27.606Z,0.00
2023-08-08T03:19:58.621Z,0.00
2023-08-08T03:20:46.347Z,0.00
2023-08-08T03:21:00.372Z,0.00
2023-08-08T03:21:31.160Z,0.00
2023-08-08T03:22:02.766Z,0.00
2023-08-08T03:22:33.302Z,0.00
2023-08-08T03:23:04.536Z,0.00
2023-08-08T03:23:35.493Z,0.00
2023-08-08T03:24:06.230Z,0.00
2023-08-08T03:24:37.896Z,0.00
2023-08-08T03:25:09.086Z,0.00
2023-08-08T03:25:40.314Z,0.00
2023-08-08T03:26:10.227Z,0.00
2023-08-08T03:26:41.609Z,0.00
2023-08-08T03:27:29.748Z,0.00
2023-08-08T03:27:43.340Z,0.00
2023-08-08T03:28:14.258Z,0.00
2023-08-08T03:28:45.427Z,0.00
2023-08-08T03:29:16.478Z,0.00
2023-08-08T03:29:47.966Z,0.00
2023-08-08T03:30:19.291Z,0.00
2023-08-08T03:30:49.548Z,0.00
2023-08-08T03:31:21.125Z,0.00
2023-08-08T03:31:51.589Z,0.00
2023-08-08T03:32:22.581Z,0.00
2023-08-08T03:32:53.373Z,0.00
2023-08-08T03:33:24.587Z,0.00
2023-08-08T03:33:55.993Z,0.00
2023-08-08T03:34:26.432Z,0.00
2023-08-08T03:35:15.753Z,0.00
2023-08-08T03:35:28.898Z,0.00
2023-08-08T03:35:59.498Z,0.00
2023-08-08T03:36:30.842Z,0.00
2023-08-08T03:37:01.330Z,0.00
2023-08-08T03:37:32.984Z,0.00
2023-08-08T03:38:03.758Z,0.00
2023-08-08T03:38:34.854Z,0.00
2023-08-08T03:39:05.341Z,0.00
2023-08-08T03:39:36.245Z,0.00
2023-08-08T03:40:08.070Z,0.00
2023-08-08T03:40:38.784Z,0.00
2023-08-08T03:41:09.477Z,0.00
2023-08-08T03:41:40.783Z,0.00
2023-08-08T03:42:12.460Z,0.00
2023-08-08T03:42:42.904Z,0.00
2023-08-08T03:43:13.230Z,0.00
2023-08-08T03:43:44.638Z,0.00
2023-08-08T03:44:17.014Z,0.00
2023-08-08T03:44:46.509Z,0.00
2023-08-08T03:45:19.460Z,0.00
2023-08-08T03:45:49.270Z,0.00
2023-08-08T03:46:21.172Z,0.00
2023-08-08T03:46:50.686Z,0.00
2023-08-08T03:47:22.859Z,0.00
2023-08-08T03:47:52.829Z,0.00
2023-08-08T03:48:24.121Z,0.00
2023-08-08T03:48:56.023Z,0.00
2023-08-08T03:49:27.293Z,0.00
2023-08-08T03:49:59.449Z,0.00
2023-08-08T03:50:29.413Z,0.00
2023-08-08T03:50:59.195Z,0.00
2023-08-08T03:51:31.494Z,0.00
2023-08-08T03:52:03.601Z,0.00
2023-08-08T03:52:32.966Z,0.00
2023-08-08T03:53:05.608Z,0.00
2023-08-08T03:53:36.629Z,0.00
2023-08-08T03:54:08.359Z,0.00
2023-08-08T03:54:38.640Z,0.00
2023-08-08T03:55:42.098Z,0.00
2023-08-08T03:56:13.704Z,0.00
2023-08-08T03:56:43.092Z,0.00
2023-08-08T03:57:16.272Z,0.00
2023-08-08T03:57:45.045Z,0.00
2023-08-08T03:58:15.851Z,0.00
2023-08-08T03:58:46.550Z,0.00
2023-08-08T03:59:16.143Z,0.00
2023-08-08T03:59:48.013Z,0.00
2023-08-08T04:00:22.427Z,0.00
2023-08-08T04:00:50.764Z,0.00
2023-08-08T04:01:53.652Z,0.00
2023-08-08T04:02:24.403Z,0.00
2023-08-08T04:02:56.381Z,0.00
2023-08-08T04:03:28.809Z,0.00
2023-08-08T04:03:57.605Z,0.00
2023-08-08T04:04:28.998Z,0.00
2023-08-08T04:05:01.067Z,0.00
2023-08-08T04:05:32.944Z,0.00
2023-08-08T04:06:02.651Z,0.00
2023-08-08T04:06:36.088Z,0.00
2023-08-08T04:07:04.197Z,0.00
2023-08-08T04:07:33.972Z,0.00
2023-08-08T04:08:05.778Z,0.00
2023-08-08T04:08:36.528Z,0.00
2023-08-08T04:09:08.085Z,0.00
2023-08-08T04:09:38.167Z,0.00
2023-08-08T04:10:11.276Z,0.00
2023-08-08T04:10:44.160Z,0.00
2023-08-08T04:11:12.632Z,0.00
2023-08-08T04:11:43.731Z,0.00
2023-08-08T04:12:13.427Z,0.00
2023-08-08T04:12:47.116Z,0.00
2023-08-08T04:13:15.753Z,0.00
2023-08-08T04:13:48.077Z,0.00
2023-08-08T04:14:18.083Z,0.00
2023-08-08T04:14:49.234Z,0.00
2023-08-08T04:15:22.163Z,0.00
2023-08-08T04:15:51.317Z,0.00
2023-08-08T04:16:21.716Z,0.00
2023-08-08T04:17:25.474Z,0.00
2023-08-08T04:17:57.493Z,0.00
2023-08-08T04:18:25.294Z,0.00
2023-08-08T04:18:55.928Z,0.00
2023-08-08T04:19:57.831Z,0.00
2023-08-08T04:20:31.082Z,0.36
2023-08-08T04:21:02.063Z,0.36
2023-08-08T04:21:33.298Z,0.85
2023-08-08T04:22:03.309Z,0.85
2023-08-08T04:22:33.760Z,0.85
2023-08-08T04:23:05.125Z,0.36
2023-08-08T04:23:36.116Z,1.22
2023-08-08T04:24:07.896Z,0.36
2023-08-08T04:24:37.774Z,0.85
2023-08-08T04:25:08.746Z,1.71
2023-08-08T04:25:39.647Z,1.22
2023-08-08T04:26:10.164Z,0.00
2023-08-08T04:26:41.542Z,0.85
2023-08-08T04:27:12.206Z,0.36
2023-08-08T04:28:14.252Z,0.36
2023-08-08T04:28:45.475Z,0.85
2023-08-08T04:29:17.042Z,0.36
2023-08-08T04:29:48.267Z,0.85
2023-08-08T04:30:21.316Z,1.71
2023-08-08T04:30:50.135Z,1.22
2023-08-08T04:31:22.197Z,1.71
2023-08-08T04:31:51.855Z,1.22
2023-08-08T04:32:24.036Z,1.22
2023-08-08T04:32:55.961Z,1.22
2023-08-08T04:33:24.654Z,1.71
2023-08-08T04:33:58.155Z,0.85
2023-08-08T04:34:27.311Z,0.85
2023-08-08T04:34:57.899Z,1.22
2023-08-08T04:35:30.542Z,1.71
2023-08-08T04:36:01.866Z,1.71
2023-08-08T04:36:32.259Z,0.00
2023-08-08T04:37:04.239Z,0.85
2023-08-08T04:37:32.100Z,1.71
2023-08-08T04:38:05.457Z,2.57
2023-08-08T04:38:35.228Z,1.22
2023-08-08T04:39:06.597Z,2.57
2023-08-08T04:39:36.804Z,1.71
2023-08-08T04:40:06.447Z,2.57
2023-08-08T04:40:38.237Z,3.43
2023-08-08T04:41:08.707Z,3.43
2023-08-08T04:41:42.117Z,3.43
2023-08-08T04:42:11.478Z,2.57
2023-08-08T04:42:44.286Z,2.08
2023-08-08T04:43:13.754Z,2.57
2023-08-08T04:43:46.292Z,2.57
2023-08-08T04:44:15.882Z,3.43
2023-08-08T04:44:47.796Z,3.43
2023-08-08T04:45:20.468Z,2.94
2023-08-08T04:45:49.222Z,2.94
2023-08-08T04:46:53.157Z,2.08
2023-08-08T04:47:22.863Z,2.08
2023-08-08T04:47:53.702Z,2.08
2023-08-08T04:48:23.372Z,2.08
2023-08-08T04:48:56.356Z,2.08
2023-08-08T04:49:26.891Z,2.08
2023-08-08T04:49:55.470Z,0.85
2023-08-08T04:50:28.136Z,0.00
2023-08-08T04:51:00.769Z,0.85
2023-08-08T04:55:42.288Z,4.77
2023-08-08T04:56:06.625Z,5.14
2023-08-08T04:56:37.980Z,5.14
2023-08-08T04:57:43.343Z,5.63
2023-08-08T05:03:58.025Z,5.63
2023-08-08T05:04:20.724Z,4.28
2023-08-08T05:04:53.649Z,4.28
2023-08-08T05:05:25.970Z,3.79
2023-08-08T05:05:54.281Z,4.28
2023-08-08T05:06:26.032Z,4.77
2023-08-08T05:06:55.298Z,5.63
2023-08-08T05:07:27.404Z,6.85
2023-08-08T05:07:59.099Z,5.99
2023-08-08T05:08:29.809Z,5.63
2023-08-08T05:09:00.230Z,5.14
2023-08-08T05:09:31.487Z,5.63
2023-08-08T05:10:02.929Z,4.28
2023-08-08T05:10:33.842Z,4.28
2023-08-08T05:11:05.942Z,3.79
2023-08-08T05:11:34.883Z,4.28
2023-08-08T05:12:08.350Z,4.28
2023-08-08T05:12:37.599Z,4.77
2023-08-08T05:13:06.875Z,5.14
2023-08-08T05:13:38.337Z,5.63
2023-08-08T05:14:28.478Z,6.48
2023-08-08T05:14:42.744Z,6.48
2023-08-08T05:15:14.470Z,8.19
2023-08-08T05:15:43.013Z,8.56
2023-08-08T05:16:16.681Z,9.05
2023-08-08T05:16:44.481Z,12.11
2023-08-08T05:17:15.992Z,14.68
2023-08-08T05:17:47.549Z,17.73
2023-08-08T05:18:18.757Z,19.08
2023-08-08T05:18:51.345Z,21.16
2023-08-08T05:19:20.727Z,23.36
2023-08-08T05:19:49.049Z,23.85
2023-08-08T05:21:34.201Z,24.71
2023-08-08T05:21:56.482Z,23.85
2023-08-08T05:22:26.989Z,24.71
2023-08-08T05:22:56.941Z,25.94
2023-08-08T05:23:28.284Z,26.79
2023-08-08T05:24:00.338Z,28.14
2023-08-08T05:26:13.175Z,28.99
2023-08-08T05:26:55.119Z,34.62
2023-08-08T05:27:04.205Z,36.33
2023-08-08T05:27:35.156Z,37.68
2023-08-08T05:33:07.969Z,29.85
2023-08-08T05:33:17.318Z,30.34
2023-08-08T05:33:48.230Z,29.48
2023-08-08T05:34:18.724Z,28.99
2023-08-08T05:34:53.455Z,28.99
2023-08-08T05:39:35.611Z,28.99
2023-08-08T05:40:08.383Z,28.63
2023-08-08T06:14:33.575Z,28.99
2023-08-08T06:16:04.114Z,104.10
2023-08-08T06:16:22.223Z,108.39
2023-08-08T06:18:03.961Z,111.44
2023-08-08T06:18:11.700Z,109.73
2023-08-08T06:18:43.641Z,113.65
2023-08-08T06:19:14.743Z,117.93
2023-08-08T06:26:38.974Z,154.75
2023-08-08T06:27:14.243Z,148.76
2023-08-08T06:27:42.430Z,157.81
2023-08-08T06:28:08.342Z,158.30
2023-08-08T06:28:33.122Z,160.02
2023-08-08T06:29:04.492Z,164.29
2023-08-08T06:29:41.621Z,166.50
2023-08-08T06:30:06.273Z,175.19
2023-08-08T06:30:40.484Z,278.93
2023-08-08T06:31:07.911Z,156.95
2023-08-08T06:31:39.052Z,150.47
2023-08-08T06:32:10.102Z,134.81
2023-08-08T06:32:41.330Z,137.02
2023-08-08T06:33:14.596Z,160.02
2023-08-08T06:33:47.865Z,109.73
2023-08-08T06:34:14.170Z,102.76
2023-08-08T06:34:44.343Z,98.36
2023-08-08T06:35:21.412Z,96.27
2023-08-08T06:35:47.579Z,96.27
2023-08-08T06:37:24.200Z,93.22
2023-08-08T06:37:53.119Z,99.70
2023-08-08T06:38:23.699Z,102.76
2023-08-08T06:38:55.317Z,120.50
2023-08-08T06:39:25.240Z,113.16
2023-08-08T06:39:57.457Z,116.58
2023-08-08T06:40:30.447Z,122.70
2023-08-08T06:41:42.136Z,124.05
2023-08-08T06:42:02.826Z,124.05
2023-08-08T06:42:33.751Z,124.41
2023-08-08T06:43:00.763Z,126.12
2023-08-08T06:43:31.537Z,126.12
2023-08-08T06:44:04.982Z,124.41
2023-08-08T06:44:41.346Z,125.76
2023-08-08T06:45:09.099Z,125.27
2023-08-08T06:45:36.693Z,123.56
2023-08-08T06:46:07.195Z,123.19
2023-08-08T06:46:37.908Z,121.36
2023-08-08T06:47:08.974Z,120.50
2023-08-08T06:47:40.621Z,121.85
2023-08-08T06:48:11.756Z,121.36
2023-08-08T06:48:45.744Z,118.78
2023-08-08T06:49:13.186Z,118.78
2023-08-08T06:49:44.572Z,118.78
2023-08-08T06:50:16.787Z,116.22
2023-08-08T06:50:46.620Z,115.36
2023-08-08T06:51:17.055Z,115.73
2023-08-08T06:51:47.942Z,115.73
2023-08-08T06:52:19.719Z,119.64
2023-08-08T06:52:51.792Z,124.41
2023-08-08T06:53:20.859Z,132.24
2023-08-08T06:53:51.763Z,133.10
2023-08-08T06:54:24.191Z,140.93
2023-08-08T06:54:55.114Z,141.42
2023-08-08T06:55:26.342Z,138.73
2023-08-08T06:55:56.455Z,137.02
2023-08-08T06:56:27.292Z,137.51
2023-08-08T06:56:58.860Z,126.61
2023-08-08T06:57:28.435Z,114.02
2023-08-08T06:57:59.315Z,107.53
2023-08-08T06:58:30.879Z,100.56
2023-08-08T06:59:02.254Z,94.93
2023-08-08T06:59:33.144Z,90.65
2023-08-08T07:00:04.872Z,92.73
2023-08-08T07:00:35.817Z,89.79
2023-08-08T07:01:07.656Z,91.02
2023-08-08T07:01:37.535Z,93.58
2023-08-08T07:02:07.865Z,93.58
2023-08-08T07:02:43.456Z,94.93
2023-08-08T07:03:09.587Z,99.70
2023-08-08T07:03:58.060Z,95.79
2023-08-08T07:04:12.330Z,95.42
2023-08-08T07:04:44.042Z,94.93
2023-08-08T07:05:16.993Z,97.50
2023-08-08T07:05:49.475Z,95.42
2023-08-08T07:06:17.465Z,95.42
2023-08-08T07:06:47.276Z,94.07
2023-08-08T07:07:22.293Z,98.85
2023-08-08T07:07:48.349Z,96.65
2023-08-08T07:08:19.430Z,101.90
2023-08-08T07:08:51.152Z,100.56
2023-08-08T07:09:21.911Z,102.76
2023-08-08T07:09:52.654Z,105.82
2023-08-08T07:10:25.987Z,111.82
2023-08-08T07:10:57.057Z,112.67
2023-08-08T07:11:26.811Z,123.19
2023-08-08T07:11:57.962Z,126.12
2023-08-08T07:12:28.052Z,133.59
2023-08-08T07:12:58.516Z,140.44
2023-08-08T07:13:29.916Z,146.56
2023-08-08T07:14:01.253Z,150.47
2023-08-08T07:14:31.811Z,153.04
2023-08-08T07:15:05.218Z,152.68
2023-08-08T07:15:35.099Z,148.76
2023-08-08T07:16:05.985Z,141.42
2023-08-08T07:16:36.846Z,128.33
2023-08-08T07:17:07.929Z,124.05
2023-08-08T07:17:37.990Z,114.87
2023-08-08T07:18:08.373Z,108.88
2023-08-08T07:18:41.233Z,104.48
2023-08-08T07:19:12.230Z,98.85
2023-08-08T07:19:41.777Z,95.42
2023-08-08T07:20:16.661Z,91.51
2023-08-08T07:20:45.067Z,87.10
2023-08-08T07:21:15.800Z,85.02
2023-08-08T07:21:46.458Z,82.82
2023-08-08T07:22:53.721Z,79.76
2023-08-08T07:23:18.648Z,79.27
2023-08-08T07:23:49.363Z,76.70
2023-08-08T07:24:20.686Z,74.99
2023-08-08T07:24:52.738Z,73.28
2023-08-08T07:25:22.767Z,70.22
2023-08-08T07:25:54.707Z,68.87
2023-08-08T07:26:26.221Z,68.87
2023-08-08T07:26:56.648Z,67.16
2023-08-08T07:27:27.735Z,68.02
2023-08-08T07:27:58.038Z,69.36
2023-08-08T07:28:28.988Z,68.87
2023-08-08T07:28:59.327Z,70.71
2023-08-08T07:29:30.732Z,71.56
2023-08-08T07:30:07.654Z,72.79
2023-08-08T07:30:36.887Z,74.50
2023-08-08T07:31:23.630Z,75.48
2023-08-08T07:31:37.028Z,75.48
2023-08-08T07:32:06.633Z,76.70
2023-08-08T07:32:37.373Z,76.34
2023-08-08T07:33:08.127Z,76.34
2023-08-08T07:34:10.343Z,76.34
2023-08-08T07:34:41.040Z,76.70
2023-08-08T07:35:13.340Z,76.34
2023-08-08T07:35:45.503Z,76.70
2023-08-08T07:37:01.208Z,77.19
2023-08-08T07:37:18.258Z,80.25
2023-08-08T07:37:47.741Z,82.82
2023-08-08T07:38:17.774Z,85.39
2023-08-08T07:38:48.541Z,89.79
2023-08-08T07:39:19.499Z,89.79
2023-08-08T07:39:51.552Z,91.51
2023-08-08T07:40:22.020Z,92.36
2023-08-08T07:40:53.349Z,96.27
2023-08-08T07:41:25.846Z,96.65
2023-08-08T07:41:55.718Z,97.99
2023-08-08T07:42:27.571Z,101.41
2023-08-08T07:42:57.487Z,103.13
2023-08-08T07:43:27.540Z,104.96
2023-08-08T07:43:59.342Z,107.04
2023-08-08T07:44:29.470Z,106.68
2023-08-08T07:45:01.254Z,107.90
2023-08-08T07:45:32.078Z,108.39
2023-08-08T07:46:02.768Z,106.68
2023-08-08T07:46:35.004Z,109.24
2023-08-08T07:47:06.188Z,109.73
2023-08-08T07:47:36.665Z,107.90
2023-08-08T07:48:07.620Z,107.53
2023-08-08T07:48:38.149Z,110.96
2023-08-08T07:49:08.691Z,109.24
2023-08-08T07:49:39.741Z,105.33
2023-08-08T07:50:11.007Z,104.96
2023-08-08T07:50:42.352Z,104.10
2023-08-08T07:51:12.579Z,100.56
2023-08-08T07:51:46.040Z,98.36
2023-08-08T07:52:16.062Z,96.65
2023-08-08T07:52:47.558Z,97.50
2023-08-08T07:53:17.467Z,94.56
2023-08-08T07:53:47.939Z,93.58
2023-08-08T07:54:18.572Z,93.22
2023-08-08T07:54:49.768Z,91.87
2023-08-08T07:55:20.789Z,90.65
2023-08-08T07:55:51.786Z,91.02
2023-08-08T07:56:24.877Z,88.45
2023-08-08T07:56:54.573Z,87.59
2023-08-08T07:57:27.133Z,85.02
2023-08-08T07:57:57.033Z,82.33
2023-08-08T07:58:27.657Z,79.76
2023-08-08T07:58:58.687Z,76.70
2023-08-08T07:59:29.289Z,74.14
2023-08-08T08:00:01.025Z,71.93
2023-08-08T08:01:10.810Z,68.02
2023-08-08T08:01:38.405Z,64.96
2023-08-08T08:02:04.019Z,62.88
2023-08-08T08:03:55.961Z,62.88
2023-08-08T08:04:12.451Z,63.73
2023-08-08T08:05:07.726Z,66.80
2023-08-08T08:05:40.894Z,77.19
2023-08-08T08:06:30.363Z,82.82
2023-08-08T08:06:45.022Z,90.16
2023-08-08T08:07:17.998Z,96.27
2023-08-08T08:07:46.413Z,101.41
2023-08-08T08:08:31.052Z,107.04
2023-08-08T08:11:29.110Z,111.82
2023-08-08T08:12:12.972Z,149.61